Jefferson City, Missouri
Current Conditions -  °F | °C
As of 6:53 PM on Saturday 22 Nov 2014 (Local Time) from KJEF Reporting Station
Overcast Overcast  
Wind Chill: 56°   Ceiling: 1400
Heat Index: 56°   Visibility: 10mi
Dew Point: 51°   Wind: 8mph
Humidity: 84%   Direction: 160°SSE
Pressure: 29.89"   Gusts: 18mph
Location:  38.58°N, 92.18°W
Report Text: KJEF 230053Z 16007G16KT 10SM OVC014 13/11 A2989 RMK AO2 SLP110 T01330106
Loading
Personal Weather Stations






























Interactive Weather Map New forecast layout! Learn more

10-Day Weather Forecast

Advertisements
Track Severe Weather on mobile